createdAt,value
2023-03-22T00:01:50.138Z,9.52
2023-03-22T00:04:35.608Z,7.70
2023-03-22T00:07:21.024Z,8.93
2023-03-22T00:10:06.746Z,10.77
2023-03-22T00:12:52.840Z,8.82
2023-03-22T00:15:38.141Z,6.95
2023-03-22T00:18:23.888Z,6.03
2023-03-22T00:21:14.384Z,7.50
2023-03-22T00:23:59.667Z,5.43
2023-03-22T00:26:47.412Z,6.10
2023-03-22T00:29:33.070Z,8.10
2023-03-22T00:32:18.336Z,7.95
2023-03-22T00:35:07.465Z,6.90
2023-03-22T00:37:53.216Z,7.57
2023-03-22T00:40:38.851Z,6.43
2023-03-22T00:43:24.375Z,7.95
2023-03-22T00:46:11.325Z,6.93
2023-03-22T00:48:57.472Z,6.10
2023-03-22T00:51:43.284Z,6.18
2023-03-22T00:54:29.105Z,5.38
2023-03-22T00:57:14.963Z,6.22
2023-03-22T01:00:07.975Z,6.97
2023-03-22T01:02:53.526Z,5.57
2023-03-22T01:05:40.200Z,6.97
2023-03-22T01:08:25.769Z,7.07
2023-03-22T01:11:11.820Z,6.05
2023-03-22T01:13:57.565Z,4.63
2023-03-22T01:16:42.887Z,5.40
2023-03-22T01:19:28.737Z,4.93
2023-03-22T01:22:14.393Z,4.47
2023-03-22T01:24:59.805Z,3.65
2023-03-22T01:27:45.303Z,4.78
2023-03-22T01:30:30.976Z,4.03
2023-03-22T01:33:16.334Z,5.13
2023-03-22T01:36:02.218Z,4.22
2023-03-22T01:38:48.012Z,6.32
2023-03-22T01:41:35.137Z,9.75
2023-03-22T01:44:30.050Z,8.30
2023-03-22T01:47:16.650Z,7.30
2023-03-22T01:50:02.267Z,7.32
2023-03-22T01:52:49.775Z,6.13
2023-03-22T01:55:41.577Z,5.75
2023-03-22T01:58:37.004Z,5.13
2023-03-22T02:01:24.827Z,4.60
2023-03-22T02:04:20.043Z,4.90
2023-03-22T02:07:10.174Z,4.47
2023-03-22T02:09:57.228Z,5.13
2023-03-22T02:13:06.951Z,5.53
2023-03-22T02:16:21.599Z,4.57
2023-03-22T02:19:33.343Z,3.95
2023-03-22T02:22:46.485Z,4.43
2023-03-22T02:26:02.498Z,4.32
2023-03-22T02:28:53.008Z,4.57
2023-03-22T02:32:08.835Z,3.58
2023-03-22T02:35:27.844Z,3.35
2023-03-22T02:38:25.196Z,3.67
2023-03-22T02:41:16.261Z,2.58
2023-03-22T02:44:04.262Z,2.25
2023-03-22T02:47:03.146Z,3.20
2023-03-22T02:50:17.924Z,4.30
2023-03-22T02:53:24.746Z,2.55
2023-03-22T02:56:24.020Z,2.63
2023-03-22T02:59:12.140Z,2.40
2023-03-22T03:02:00.295Z,3.15
2023-03-22T03:04:49.896Z,3.70
2023-03-22T03:07:35.284Z,3.55
2023-03-22T03:10:22.726Z,3.08
2023-03-22T03:13:16.812Z,2.80
2023-03-22T03:16:03.981Z,3.08
2023-03-22T03:18:58.179Z,3.58
2023-03-22T03:22:07.210Z,3.13
2023-03-22T03:25:22.157Z,3.05
2023-03-22T03:28:38.485Z,2.83
2023-03-22T03:31:45.912Z,3.65
2023-03-22T03:34:39.375Z,3.70
2023-03-22T03:37:34.458Z,3.25
2023-03-22T03:40:33.705Z,2.45
2023-03-22T03:43:20.920Z,3.88
2023-03-22T03:46:08.144Z,4.85
2023-03-22T03:48:57.245Z,3.00
2023-03-22T03:51:53.958Z,4.75
2023-03-22T03:54:39.898Z,2.33
2023-03-22T03:57:29.880Z,4.63
2023-03-22T04:00:16.111Z,5.00
2023-03-22T04:03:25.303Z,5.18
2023-03-22T04:06:39.518Z,3.80
2023-03-22T04:09:33.441Z,4.72
2023-03-22T04:12:41.648Z,4.57
2023-03-22T04:15:32.809Z,2.10
2023-03-22T04:18:21.563Z,3.50
2023-03-22T04:21:07.734Z,2.38
2023-03-22T04:24:03.502Z,3.85
2023-03-22T04:26:54.549Z,2.63
2023-03-22T04:29:48.295Z,3.88
2023-03-22T04:32:54.984Z,3.63
2023-03-22T04:35:47.604Z,3.22
2023-03-22T04:38:33.499Z,3.92
2023-03-22T04:41:19.258Z,3.60
2023-03-22T04:44:09.150Z,2.42
2023-03-22T04:46:58.921Z,1.55
2023-03-22T04:49:45.368Z,2.90
2023-03-22T04:52:31.389Z,2.80
2023-03-22T04:55:17.211Z,2.70
2023-03-22T04:58:03.735Z,3.22
2023-03-22T05:00:49.005Z,2.67
2023-03-22T05:03:34.534Z,3.03
2023-03-22T05:06:20.160Z,3.05
2023-03-22T05:09:15.462Z,2.58
2023-03-22T05:12:01.078Z,3.92
2023-03-22T05:14:57.680Z,2.40
2023-03-22T05:17:49.461Z,2.92
2023-03-22T05:20:34.937Z,4.53
2023-03-22T05:23:33.258Z,3.28
2023-03-22T05:26:20.406Z,2.55
2023-03-22T05:29:06.505Z,2.72
2023-03-22T05:32:12.502Z,2.83
2023-03-22T05:34:58.350Z,3.72
2023-03-22T05:37:52.962Z,3.65
2023-03-22T05:40:39.467Z,4.95
2023-03-22T05:43:25.092Z,3.92
2023-03-22T05:46:12.471Z,2.53
2023-03-22T05:49:17.049Z,2.08
2023-03-22T05:52:05.952Z,4.13
2023-03-22T05:55:17.631Z,3.20
2023-03-22T05:58:05.145Z,6.30
2023-03-22T06:00:53.564Z,2.92
2023-03-22T06:03:39.656Z,3.10
2023-03-22T06:06:35.081Z,15.85
2023-03-22T06:09:41.649Z,13.60
2023-03-22T06:12:31.508Z,18.33
2023-03-22T06:15:29.788Z,8.75
2023-03-22T06:18:21.145Z,10.65
2023-03-22T06:21:14.456Z,13.57
2023-03-22T06:24:00.535Z,15.05
2023-03-22T06:26:46.103Z,19.58
2023-03-22T06:29:31.384Z,10.32
2023-03-22T06:32:23.652Z,16.48
2023-03-22T06:35:09.511Z,16.70
2023-03-22T06:37:55.037Z,16.80
2023-03-22T06:40:40.884Z,12.73
2023-03-22T06:43:26.354Z,15.48
2023-03-22T06:46:19.147Z,19.98
2023-03-22T06:49:13.995Z,19.50
2023-03-22T06:51:59.739Z,16.38
2023-03-22T06:54:46.027Z,6.93
2023-03-22T06:57:31.570Z,5.63
2023-03-22T07:00:17.410Z,4.90
2023-03-22T07:03:03.341Z,4.38
2023-03-22T07:06:00.174Z,4.75
2023-03-22T07:08:46.230Z,4.50
2023-03-22T07:11:35.322Z,4.97
2023-03-22T07:14:21.874Z,5.03
2023-03-22T07:17:24.945Z,4.07
2023-03-22T07:20:11.274Z,4.32
2023-03-22T07:22:57.360Z,4.35
2023-03-22T07:25:47.631Z,4.03
2023-03-22T07:28:44.543Z,4.13
2023-03-22T07:31:36.331Z,3.65
2023-03-22T07:34:24.231Z,3.08
2023-03-22T07:37:29.715Z,4.75
2023-03-22T07:40:15.642Z,4.68
2023-03-22T07:43:01.415Z,4.82
2023-03-22T07:46:13.369Z,4.38
2023-03-22T07:49:37.467Z,3.88
2023-03-22T07:52:27.280Z,4.15
2023-03-22T07:55:14.742Z,4.30
2023-03-22T07:58:00.858Z,4.13
2023-03-22T08:00:46.120Z,4.35
2023-03-22T08:04:03.969Z,4.20
2023-03-22T08:07:25.265Z,5.93
2023-03-22T08:10:11.759Z,4.68
2023-03-22T08:12:57.075Z,4.30
2023-03-22T08:15:44.941Z,4.35
2023-03-22T08:18:30.852Z,5.00
2023-03-22T08:21:16.415Z,5.22
2023-03-22T08:24:02.322Z,4.88
2023-03-22T08:27:12.376Z,4.85
2023-03-22T08:30:05.679Z,4.78
2023-03-22T08:32:51.397Z,4.38
2023-03-22T08:35:40.405Z,4.95
2023-03-22T08:38:26.482Z,4.63
2023-03-22T08:41:13.127Z,5.35
2023-03-22T08:43:59.123Z,6.13
2023-03-22T08:46:44.514Z,5.38
2023-03-22T08:49:31.649Z,4.82
2023-03-22T08:52:23.475Z,6.95
2023-03-22T08:55:37.471Z,6.13
2023-03-22T08:58:29.489Z,5.55
2023-03-22T09:01:36.300Z,5.68
2023-03-22T09:04:23.515Z,5.97
2023-03-22T09:07:08.818Z,5.93
2023-03-22T09:09:55.277Z,5.32
2023-03-22T09:12:40.996Z,5.72
2023-03-22T09:15:26.600Z,5.05
2023-03-22T09:18:28.049Z,4.78
2023-03-22T09:21:17.976Z,4.65
2023-03-22T09:24:14.164Z,3.80
2023-03-22T09:27:04.604Z,4.88
2023-03-22T09:29:52.114Z,4.80
2023-03-22T09:32:38.664Z,4.95
2023-03-22T09:35:24.818Z,4.68
2023-03-22T09:38:17.195Z,4.47
2023-03-22T09:41:35.739Z,4.25
2023-03-22T09:44:28.131Z,5.15
2023-03-22T09:47:18.489Z,3.78
2023-03-22T09:50:19.192Z,5.00
2023-03-22T09:53:09.493Z,2.97
2023-03-22T09:55:57.433Z,3.85
2023-03-22T09:59:01.072Z,3.65
2023-03-22T10:02:41.847Z,3.30
2023-03-22T10:05:29.712Z,2.83
2023-03-22T10:08:36.642Z,3.30
2023-03-22T10:11:25.616Z,3.03
2023-03-22T10:14:14.004Z,3.03
2023-03-22T10:17:05.700Z,2.47
2023-03-22T10:19:59.486Z,2.85
2023-03-22T10:22:46.671Z,3.45
2023-03-22T10:25:41.089Z,3.38
2023-03-22T10:28:44.062Z,3.05
2023-03-22T10:31:30.553Z,3.05
2023-03-22T10:34:31.096Z,2.67
2023-03-22T10:37:20.599Z,2.67
2023-03-22T10:40:08.212Z,3.03
2023-03-22T10:43:13.532Z,2.58
2023-03-22T10:46:02.667Z,2.75
2023-03-22T10:48:51.543Z,2.75
2023-03-22T10:51:45.013Z,2.33
2023-03-22T10:54:32.743Z,3.03
2023-03-22T10:57:17.971Z,2.00
2023-03-22T11:00:10.133Z,2.20
2023-03-22T11:03:00.202Z,2.47
2023-03-22T11:05:58.736Z,3.08
2023-03-22T11:08:47.366Z,1.92
2023-03-22T11:11:36.642Z,1.85
2023-03-22T11:14:28.192Z,2.85
2023-03-22T11:17:17.148Z,2.20
2023-03-22T11:20:10.684Z,1.90
2023-03-22T11:22:57.359Z,1.77
2023-03-22T11:25:49.222Z,2.00
2023-03-22T11:28:46.436Z,2.30
2023-03-22T11:31:51.936Z,2.00
2023-03-22T11:34:38.415Z,2.40
2023-03-22T11:37:23.667Z,2.15
2023-03-22T11:40:18.963Z,2.13
2023-03-22T11:43:10.589Z,1.65
2023-03-22T11:45:58.677Z,1.92
2023-03-22T11:48:46.907Z,2.22
2023-03-22T11:51:37.359Z,1.92
2023-03-22T11:54:36.511Z,2.25
2023-03-22T11:57:27.501Z,2.08
2023-03-22T12:00:20.083Z,2.15
2023-03-22T12:03:18.502Z,2.22
2023-03-22T12:06:11.825Z,1.90
2023-03-22T12:09:06.948Z,2.00
2023-03-22T12:11:58.701Z,1.65
2023-03-22T12:14:54.339Z,1.80
2023-03-22T12:18:30.827Z,1.58
2023-03-22T12:21:16.726Z,2.03
2023-03-22T12:24:04.447Z,1.65
2023-03-22T12:26:52.897Z,1.65
2023-03-22T12:29:45.667Z,2.10
2023-03-22T12:32:36.802Z,1.55
2023-03-22T12:35:27.288Z,1.45
2023-03-22T12:38:41.280Z,2.03
2023-03-22T12:41:31.695Z,1.80
2023-03-22T12:44:22.140Z,1.77
2023-03-22T12:47:24.489Z,2.28
2023-03-22T12:50:20.681Z,2.53
2023-03-22T12:53:06.989Z,2.25
2023-03-22T12:55:53.430Z,1.90
2023-03-22T12:58:38.861Z,2.47
2023-03-22T13:01:45.580Z,3.10
2023-03-22T13:04:37.046Z,2.83
2023-03-22T13:07:31.646Z,3.13
2023-03-22T13:10:50.618Z,3.40
2023-03-22T13:13:44.991Z,3.15
2023-03-22T13:16:56.221Z,2.60
2023-03-22T13:20:06.848Z,2.63
2023-03-22T13:22:52.041Z,2.20
2023-03-22T13:25:58.200Z,2.50
2023-03-22T13:28:56.024Z,3.30
2023-03-22T13:31:44.109Z,2.72
2023-03-22T13:34:32.329Z,2.83
2023-03-22T13:37:38.590Z,3.17
2023-03-22T13:40:44.493Z,3.25
2023-03-22T13:43:30.130Z,2.95
2023-03-22T13:46:20.026Z,3.60
2023-03-22T13:49:18.219Z,3.45
2023-03-22T13:52:08.347Z,4.13
2023-03-22T13:54:57.228Z,3.42
2023-03-22T13:58:08.150Z,2.67
2023-03-22T14:00:56.021Z,3.97
2023-03-22T14:03:44.243Z,3.17
2023-03-22T14:06:36.470Z,3.67
2023-03-22T14:09:36.405Z,3.53
2023-03-22T14:12:28.384Z,3.10
2023-03-22T14:15:21.667Z,3.35
2023-03-22T14:18:16.075Z,3.83
2023-03-22T14:21:13.165Z,2.97
